Time;durP1;ratioP1;P1;durP2;ratioP2;P2;SDS_P1;SDS_P2;PMS_P1;PMS_P2;Temp;Humidity;BMP_temperature;BMP_pressure;BME280_temperature;BME280_humidity;BME280_pressure;Samples;Min_cycle;Max_cycle;Signal;HPM_P1;HPM_P2
2023/12/09 00:00:00;;;;;;;66.90;26.27;;;;;;;;;;6164096;23;20199;-90
2023/12/09 00:03:08;;;;;;;69.70;28.13;;;;;;;;;;6164717;23;20334;-90
2023/12/09 00:06:13;;;;;;;76.40;28.13;;;;;;;;;;6164599;23;20172;-91
2023/12/09 00:09:18;;;;;;;77.03;28.07;;;;;;;;;;6164473;23;20771;-92
2023/12/09 00:12:27;;;;;;;73.07;27.57;;;;;;;;;;6163684;23;20172;-91
2023/12/09 00:15:32;;;;;;;73.40;26.90;;;;;;;;;;6164684;23;20225;-91
2023/12/09 00:18:38;;;;;;;76.50;29.00;;;;;;;;;;6165465;23;20173;-91
2023/12/09 00:21:44;;;;;;;75.97;28.67;;;;;;;;;;6165007;23;20200;-91
2023/12/09 00:24:49;;;;;;;81.67;29.07;;;;;;;;;;6164233;23;20176;-89
2023/12/09 00:27:56;;;;;;;70.00;26.17;;;;;;;;;;6163130;23;20192;-90
2023/12/09 00:31:01;;;;;;;82.07;28.37;;;;;;;;;;6163687;23;20305;-91
2023/12/09 00:34:08;;;;;;;75.37;28.23;;;;;;;;;;6165069;23;20300;-90
2023/12/09 00:37:12;;;;;;;78.43;29.10;;;;;;;;;;6166565;23;20168;-90
2023/12/09 00:40:19;;;;;;;82.57;29.23;;;;;;;;;;6165016;23;20173;-91
2023/12/09 00:43:24;;;;;;;73.03;28.60;;;;;;;;;;6163130;23;20151;-90
2023/12/09 00:46:30;;;;;;;72.20;27.73;;;;;;;;;;6164769;23;20221;-91
2023/12/09 00:49:37;;;;;;;74.67;27.67;;;;;;;;;;6164138;23;20567;-91
2023/12/09 00:52:42;;;;;;;80.40;28.97;;;;;;;;;;6166678;23;20620;-90
2023/12/09 00:55:47;;;;;;;71.97;27.77;;;;;;;;;;6165138;23;20236;-91
2023/12/09 00:58:51;;;;;;;72.83;27.37;;;;;;;;;;6165098;23;20216;-89
2023/12/09 01:01:56;;;;;;;71.57;26.93;;;;;;;;;;6164563;23;20290;-92
2023/12/09 01:05:03;;;;;;;71.10;26.03;;;;;;;;;;6164672;23;20202;-92
2023/12/09 01:08:08;;;;;;;77.00;27.60;;;;;;;;;;6162805;23;20284;-92
2023/12/09 01:11:13;;;;;;;72.90;28.30;;;;;;;;;;6163716;23;20188;-90
2023/12/09 01:14:18;;;;;;;76.93;28.10;;;;;;;;;;6162514;23;20165;-90
2023/12/09 01:17:23;;;;;;;70.33;27.00;;;;;;;;;;6165077;23;20233;-90
2023/12/09 01:20:29;;;;;;;68.00;26.07;;;;;;;;;;6166704;23;20713;-91
2023/12/09 01:23:34;;;;;;;69.13;26.20;;;;;;;;;;6166106;23;20451;-90
2023/12/09 01:26:39;;;;;;;66.93;26.10;;;;;;;;;;6166479;23;20292;-91
2023/12/09 01:29:44;;;;;;;67.43;27.37;;;;;;;;;;6165104;23;20187;-92
2023/12/09 01:32:50;;;;;;;72.50;27.17;;;;;;;;;;6166061;23;20176;-92
2023/12/09 01:35:56;;;;;;;72.50;26.50;;;;;;;;;;6166171;23;20155;-91
2023/12/09 01:39:02;;;;;;;76.80;28.83;;;;;;;;;;6164914;23;20180;-90
2023/12/09 01:42:07;;;;;;;72.63;28.17;;;;;;;;;;6166655;23;20232;-91
2023/12/09 01:45:13;;;;;;;68.17;27.90;;;;;;;;;;6165247;23;20211;-91
2023/12/09 01:48:18;;;;;;;72.20;27.03;;;;;;;;;;6167542;23;20197;-91
2023/12/09 01:51:25;;;;;;;71.77;27.77;;;;;;;;;;6167043;23;20168;-91
2023/12/09 01:54:30;;;;;;;73.60;27.93;;;;;;;;;;6167984;23;20216;-91
2023/12/09 01:57:36;;;;;;;72.07;27.47;;;;;;;;;;6168215;23;20172;-91
2023/12/09 02:00:42;;;;;;;73.70;27.77;;;;;;;;;;6167341;23;20196;-91
2023/12/09 02:03:47;;;;;;;74.10;26.77;;;;;;;;;;6168835;23;20169;-90
2023/12/09 02:06:54;;;;;;;73.90;28.40;;;;;;;;;;6167155;23;20160;-88
2023/12/09 02:10:00;;;;;;;84.97;30.07;;;;;;;;;;6169740;23;20184;-91
2023/12/09 02:13:10;;;;;;;73.27;27.53;;;;;;;;;;6169139;23;20164;-89
2023/12/09 02:16:18;;;;;;;77.00;27.83;;;;;;;;;;6167607;23;20172;-90
2023/12/09 02:19:23;;;;;;;70.53;27.17;;;;;;;;;;6166457;23;20212;-91
2023/12/09 02:22:29;;;;;;;72.70;27.20;;;;;;;;;;6167387;23;20168;-92
2023/12/09 02:25:37;;;;;;;73.63;28.03;;;;;;;;;;6166395;23;20165;-90
2023/12/09 02:28:46;;;;;;;82.43;27.47;;;;;;;;;;6166526;23;20227;-91
2023/12/09 02:31:53;;;;;;;73.23;27.77;;;;;;;;;;6165038;23;20167;-90
2023/12/09 02:34:59;;;;;;;81.47;28.77;;;;;;;;;;6164941;23;20615;-91
2023/12/09 02:38:04;;;;;;;72.20;26.67;;;;;;;;;;6162663;23;20219;-91
2023/12/09 02:41:11;;;;;;;72.00;27.90;;;;;;;;;;6164323;23;20167;-91
2023/12/09 02:44:16;;;;;;;72.53;28.40;;;;;;;;;;6164610;23;20168;-92
2023/12/09 02:47:21;;;;;;;69.27;27.23;;;;;;;;;;6166025;23;20168;-93
2023/12/09 02:50:26;;;;;;;75.90;27.80;;;;;;;;;;6165196;23;20529;-89
2023/12/09 02:53:31;;;;;;;63.47;26.20;;;;;;;;;;6163879;23;20169;-92
2023/12/09 02:56:37;;;;;;;63.33;27.27;;;;;;;;;;6165842;23;20157;-92
2023/12/09 02:59:43;;;;;;;73.87;26.87;;;;;;;;;;6166264;23;20271;-90
2023/12/09 03:02:47;;;;;;;71.60;26.60;;;;;;;;;;6167057;23;20180;-90
2023/12/09 03:05:52;;;;;;;67.53;26.10;;;;;;;;;;6166375;23;20220;-92
2023/12/09 03:08:58;;;;;;;72.17;26.73;;;;;;;;;;6165265;23;20232;-91
2023/12/09 03:12:05;;;;;;;66.40;26.33;;;;;;;;;;6167347;23;20164;-92
2023/12/09 03:15:11;;;;;;;69.00;25.93;;;;;;;;;;6167107;23;20193;-91
2023/12/09 03:18:16;;;;;;;61.47;24.70;;;;;;;;;;6167713;23;20165;-90
2023/12/09 03:21:21;;;;;;;66.57;25.73;;;;;;;;;;6166514;23;20164;-91
2023/12/09 03:24:26;;;;;;;64.07;24.33;;;;;;;;;;6167000;23;20227;-89
2023/12/09 03:27:32;;;;;;;65.57;24.93;;;;;;;;;;6167017;23;20160;-90
2023/12/09 03:30:37;;;;;;;65.17;25.07;;;;;;;;;;6168399;23;20651;-90
2023/12/09 03:33:42;;;;;;;67.57;26.50;;;;;;;;;;6169844;23;20216;-91
2023/12/09 03:36:48;;;;;;;67.13;26.00;;;;;;;;;;6170100;23;20168;-89
2023/12/09 03:39:52;;;;;;;62.30;25.23;;;;;;;;;;6169752;23;20176;-91
2023/12/09 03:42:59;;;;;;;61.47;24.63;;;;;;;;;;6167329;23;20491;-91
2023/12/09 03:46:05;;;;;;;64.93;25.17;;;;;;;;;;6167992;23;20222;-91
2023/12/09 03:49:10;;;;;;;68.20;25.77;;;;;;;;;;6168393;23;20188;-92
2023/12/09 03:52:15;;;;;;;65.80;24.80;;;;;;;;;;6169136;23;20280;-91
2023/12/09 03:55:20;;;;;;;64.60;25.90;;;;;;;;;;6169418;23;20168;-90
2023/12/09 03:58:27;;;;;;;67.13;25.00;;;;;;;;;;6168554;23;20164;-90
2023/12/09 04:01:32;;;;;;;71.00;25.43;;;;;;;;;;6167723;23;20168;-91
2023/12/09 04:04:39;;;;;;;71.23;25.93;;;;;;;;;;6169191;23;20265;-91
2023/12/09 04:07:44;;;;;;;67.93;26.10;;;;;;;;;;6170504;23;20184;-91
2023/12/09 04:10:49;;;;;;;65.77;25.67;;;;;;;;;;6171719;23;20183;-91
2023/12/09 04:13:56;;;;;;;85.50;27.33;;;;;;;;;;6170551;23;20173;-90
2023/12/09 04:17:01;;;;;;;68.03;26.10;;;;;;;;;;6167744;23;20213;-91
2023/12/09 04:20:07;;;;;;;71.83;26.37;;;;;;;;;;6169616;23;20220;-92
2023/12/09 04:23:12;;;;;;;65.53;24.77;;;;;;;;;;6169598;23;20165;-92
2023/12/09 04:26:17;;;;;;;64.87;24.23;;;;;;;;;;6169022;23;20163;-90
2023/12/09 04:29:24;;;;;;;66.33;25.07;;;;;;;;;;6167996;23;20200;-90
2023/12/09 04:32:30;;;;;;;72.40;25.70;;;;;;;;;;6168390;23;20165;-91
2023/12/09 04:35:37;;;;;;;71.33;26.07;;;;;;;;;;6169273;23;20153;-91
2023/12/09 04:38:43;;;;;;;68.10;24.87;;;;;;;;;;6169332;23;20697;-91
2023/12/09 04:41:48;;;;;;;67.27;25.13;;;;;;;;;;6169505;23;20164;-91
2023/12/09 04:44:54;;;;;;;68.10;25.30;;;;;;;;;;6170382;23;20216;-91
2023/12/09 04:48:00;;;;;;;62.27;23.63;;;;;;;;;;6169229;23;20164;-91
2023/12/09 04:51:07;;;;;;;66.60;25.33;;;;;;;;;;6172165;23;20171;-91
2023/12/09 04:54:12;;;;;;;65.83;25.00;;;;;;;;;;6168926;23;20171;-92
2023/12/09 04:57:17;;;;;;;63.30;24.73;;;;;;;;;;6167928;23;20164;-92
2023/12/09 05:00:24;;;;;;;74.03;25.40;;;;;;;;;;6167393;23;20267;-91
2023/12/09 05:03:29;;;;;;;65.53;24.57;;;;;;;;;;6168660;23;20212;-92
2023/12/09 05:06:34;;;;;;;64.97;24.40;;;;;;;;;;6168102;23;20185;-92
2023/12/09 05:09:39;;;;;;;72.63;26.70;;;;;;;;;;6166746;23;20184;-91
2023/12/09 05:12:44;;;;;;;69.60;25.07;;;;;;;;;;6166335;23;20180;-92
2023/12/09 05:15:50;;;;;;;66.03;25.17;;;;;;;;;;6166211;23;20232;-91
2023/12/09 05:18:55;;;;;;;63.93;24.73;;;;;;;;;;6166761;23;20176;-90
2023/12/09 05:22:01;;;;;;;66.23;25.10;;;;;;;;;;6167577;23;20193;-91
2023/12/09 05:25:06;;;;;;;64.67;24.27;;;;;;;;;;6168665;23;20212;-92
2023/12/09 05:28:12;;;;;;;62.03;25.70;;;;;;;;;;6167733;23;20169;-93
2023/12/09 05:31:17;;;;;;;60.27;23.00;;;;;;;;;;6166031;23;20188;-90
2023/12/09 05:34:22;;;;;;;62.03;24.53;;;;;;;;;;6167155;23;20164;-91
2023/12/09 05:37:28;;;;;;;59.40;23.80;;;;;;;;;;6167376;23;20151;-90
2023/12/09 05:40:33;;;;;;;64.77;25.10;;;;;;;;;;6167036;23;20168;-89
2023/12/09 05:43:38;;;;;;;64.23;24.73;;;;;;;;;;6166729;23;20219;-90
2023/12/09 05:46:45;;;;;;;61.93;24.57;;;;;;;;;;6167985;23;20173;-92
2023/12/09 05:49:50;;;;;;;68.37;25.57;;;;;;;;;;6169980;23;20176;-90
2023/12/09 05:52:56;;;;;;;68.37;24.67;;;;;;;;;;6166082;23;20192;-89
2023/12/09 05:56:01;;;;;;;67.83;25.47;;;;;;;;;;6165764;23;20168;-93
2023/12/09 05:59:05;;;;;;;65.97;25.23;;;;;;;;;;6164206;23;20171;-91
2023/12/09 06:02:12;;;;;;;61.83;24.47;;;;;;;;;;6165025;23;20153;-91
2023/12/09 06:05:17;;;;;;;72.53;25.43;;;;;;;;;;6165271;23;20155;-91
2023/12/09 06:08:22;;;;;;;75.63;27.13;;;;;;;;;;6165492;23;20289;-90
2023/12/09 06:11:27;;;;;;;66.67;25.40;;;;;;;;;;6164177;23;20304;-89
2023/12/09 06:14:32;;;;;;;76.50;26.90;;;;;;;;;;6165371;23;20172;-90
2023/12/09 06:17:39;;;;;;;68.33;26.27;;;;;;;;;;6166403;23;20617;-90
2023/12/09 06:20:44;;;;;;;68.63;26.30;;;;;;;;;;6165206;23;20173;-91
2023/12/09 06:23:49;;;;;;;70.33;26.77;;;;;;;;;;6165726;23;20276;-91
2023/12/09 06:26:54;;;;;;;70.70;26.63;;;;;;;;;;6164910;23;20632;-90
2023/12/09 06:29:59;;;;;;;68.43;26.10;;;;;;;;;;6167316;23;20648;-90
2023/12/09 06:33:06;;;;;;;72.97;26.50;;;;;;;;;;6168254;23;20208;-90
2023/12/09 06:36:11;;;;;;;66.63;25.37;;;;;;;;;;6168410;23;20177;-91
2023/12/09 06:39:16;;;;;;;67.27;25.90;;;;;;;;;;6169152;23;20165;-89
2023/12/09 06:42:21;;;;;;;73.70;27.93;;;;;;;;;;6167240;23;20627;-89
2023/12/09 06:45:26;;;;;;;69.83;27.27;;;;;;;;;;6168692;23;20180;-90
2023/12/09 06:48:32;;;;;;;66.90;26.03;;;;;;;;;;6167909;23;20168;-91
2023/12/09 06:51:40;;;;;;;69.30;26.70;;;;;;;;;;6168461;23;20180;-90
2023/12/09 06:54:45;;;;;;;71.93;27.13;;;;;;;;;;6168925;23;20172;-89
2023/12/09 06:57:50;;;;;;;79.20;27.60;;;;;;;;;;6168011;23;20169;-90
2023/12/09 07:00:56;;;;;;;74.50;27.43;;;;;;;;;;6170574;23;20176;-89
2023/12/09 07:04:02;;;;;;;85.37;29.10;;;;;;;;;;6169438;23;20188;-90
2023/12/09 07:07:08;;;;;;;70.70;27.80;;;;;;;;;;6166245;23;20247;-91
2023/12/09 07:10:13;;;;;;;80.80;29.20;;;;;;;;;;6166788;23;20216;-91
2023/12/09 07:13:18;;;;;;;74.50;28.70;;;;;;;;;;6166226;23;20180;-90
2023/12/09 07:16:24;;;;;;;72.97;27.87;;;;;;;;;;6165919;23;20181;-91
2023/12/09 07:19:30;;;;;;;79.60;29.77;;;;;;;;;;6166923;23;20172;-91
2023/12/09 07:22:35;;;;;;;73.40;28.73;;;;;;;;;;6165845;23;20476;-89
2023/12/09 07:25:40;;;;;;;95.27;31.83;;;;;;;;;;6167372;23;20177;-89
2023/12/09 07:28:46;;;;;;;77.23;29.07;;;;;;;;;;6166178;23;20164;-89
2023/12/09 07:32:04;;;;;;;85.93;29.73;;;;;;;;;;6165736;23;20164;-89
2023/12/09 07:35:10;;;;;;;82.37;30.83;;;;;;;;;;6169633;23;20171;-92
2023/12/09 07:38:15;;;;;;;82.73;29.13;;;;;;;;;;6167931;23;20176;-91
2023/12/09 07:41:21;;;;;;;87.63;30.67;;;;;;;;;;6169868;23;20172;-90
2023/12/09 07:44:26;;;;;;;84.43;30.87;;;;;;;;;;6169556;23;20168;-92
2023/12/09 07:47:31;;;;;;;88.30;32.37;;;;;;;;;;6170799;23;20156;-89
2023/12/09 07:50:38;;;;;;;81.73;31.17;;;;;;;;;;6170360;23;20208;-89
2023/12/09 07:53:43;;;;;;;83.53;30.40;;;;;;;;;;6166217;23;20328;-90
2023/12/09 07:56:48;;;;;;;77.37;29.17;;;;;;;;;;6166273;23;20255;-91
2023/12/09 07:59:53;;;;;;;88.83;32.13;;;;;;;;;;6166297;23;20192;-92
2023/12/09 08:03:03;;;;;;;88.17;32.17;;;;;;;;;;6167884;23;20168;-92
2023/12/09 08:06:10;;;;;;;93.80;34.07;;;;;;;;;;6171419;23;20200;-91
2023/12/09 08:09:15;;;;;;;90.07;32.57;;;;;;;;;;6168241;23;20173;-90
2023/12/09 08:12:21;;;;;;;94.60;32.27;;;;;;;;;;6170417;23;20617;-90
2023/12/09 08:15:26;;;;;;;78.07;29.47;;;;;;;;;;6168416;23;20544;-91
2023/12/09 08:18:31;;;;;;;81.07;29.60;;;;;;;;;;6167180;23;20169;-90
2023/12/09 08:21:39;;;;;;;96.77;34.03;;;;;;;;;;6167709;23;20176;-90
2023/12/09 08:24:44;;;;;;;94.57;34.37;;;;;;;;;;6168530;23;20173;-91
2023/12/09 08:27:49;;;;;;;90.30;30.37;;;;;;;;;;6170017;23;20173;-90
2023/12/09 08:30:54;;;;;;;94.07;32.83;;;;;;;;;;6171165;23;20756;-91
2023/12/09 08:34:00;;;;;;;88.30;32.33;;;;;;;;;;6169698;23;20172;-90
2023/12/09 08:37:06;;;;;;;85.77;32.07;;;;;;;;;;6173216;23;20216;-91
2023/12/09 08:40:13;;;;;;;82.03;31.13;;;;;;;;;;6169711;23;20168;-93
2023/12/09 08:43:18;;;;;;;85.73;31.90;;;;;;;;;;6170539;23;20236;-93
2023/12/09 08:46:24;;;;;;;88.03;31.47;;;;;;;;;;6170977;23;20176;-90
2023/12/09 08:49:30;;;;;;;90.07;31.10;;;;;;;;;;6169429;23;20201;-91
2023/12/09 08:52:37;;;;;;;84.03;31.43;;;;;;;;;;6169265;23;20172;-90
2023/12/09 08:55:44;;;;;;;79.10;30.40;;;;;;;;;;6172076;23;20172;-90
2023/12/09 08:58:49;;;;;;;91.23;31.40;;;;;;;;;;6170457;23;20251;-92
2023/12/09 09:01:54;;;;;;;92.60;31.70;;;;;;;;;;6172800;23;20280;-92
2023/12/09 09:04:59;;;;;;;93.57;33.77;;;;;;;;;;6172026;23;20243;-90
2023/12/09 09:08:07;;;;;;;98.97;33.93;;;;;;;;;;6170691;23;20228;-89
2023/12/09 09:11:21;;;;;;;87.63;31.27;;;;;;;;;;6170314;23;20535;-90
2023/12/09 09:14:28;;;;;;;96.43;34.43;;;;;;;;;;6168645;23;20209;-92
2023/12/09 10:42:39;;;;;;;79.60;28.80;;;;;;;;;;6147019;23;20206;-90
2023/12/09 10:45:45;;;;;;;72.93;28.87;;;;;;;;;;6193355;23;20183;-89
2023/12/09 10:48:51;;;;;;;78.37;29.57;;;;;;;;;;6198521;23;20247;-90
2023/12/09 10:51:56;;;;;;;80.80;31.90;;;;;;;;;;6198019;23;20244;-90
2023/12/09 10:55:01;;;;;;;94.00;33.33;;;;;;;;;;6198333;23;20163;-90
2023/12/09 10:58:08;;;;;;;87.20;33.10;;;;;;;;;;6197355;23;20172;-90
2023/12/09 11:01:14;;;;;;;80.70;29.77;;;;;;;;;;6198022;23;20204;-88
2023/12/09 11:04:19;;;;;;;75.50;29.33;;;;;;;;;;6199219;23;20172;-91
2023/12/09 11:07:25;;;;;;;80.07;28.97;;;;;;;;;;6197812;23;20167;-91
2023/12/09 11:10:31;;;;;;;75.50;27.33;;;;;;;;;;6194289;23;20214;-89
2023/12/09 11:17:05;;;;;;;79.23;30.23;;;;;;;;;;6198281;23;20273;-91
2023/12/09 11:20:13;;;;;;;68.17;26.77;;;;;;;;;;6198167;23;20175;-90
2023/12/09 11:23:18;;;;;;;65.70;26.70;;;;;;;;;;6197756;23;20175;-91
2023/12/09 11:26:28;;;;;;;70.80;27.07;;;;;;;;;;6197727;23;20172;-91
2023/12/09 11:29:38;;;;;;;80.90;28.33;;;;;;;;;;6200419;23;20171;-92
2023/12/09 11:32:44;;;;;;;75.33;28.77;;;;;;;;;;6200077;23;20172;-92
2023/12/09 11:35:51;;;;;;;80.87;30.43;;;;;;;;;;6200171;23;20246;-91
2023/12/09 11:42:17;;;;;;;78.33;29.50;;;;;;;;;;6200978;23;20192;-91
2023/12/09 11:45:24;;;;;;;83.77;31.33;;;;;;;;;;6200686;23;20176;-91
2023/12/09 11:48:32;;;;;;;88.97;31.70;;;;;;;;;;6202686;23;20223;-89
2023/12/09 11:51:39;;;;;;;95.07;34.83;;;;;;;;;;6201502;23;20192;-88
2023/12/09 11:54:44;;;;;;;185.27;57.10;;;;;;;;;;6199964;23;20179;-91
2023/12/09 11:57:49;;;;;;;92.27;29.60;;;;;;;;;;6199652;23;20248;-91
2023/12/09 12:01:00;;;;;;;76.77;28.80;;;;;;;;;;6198761;23;20183;-92
2023/12/09 12:04:14;;;;;;;79.37;29.83;;;;;;;;;;6204805;23;20160;-90
2023/12/09 12:07:20;;;;;;;82.03;30.77;;;;;;;;;;6200574;23;20175;-91
2023/12/09 12:10:26;;;;;;;70.77;26.87;;;;;;;;;;6199510;23;20227;-90
2023/12/09 12:13:32;;;;;;;67.23;27.33;;;;;;;;;;6199759;23;20172;-91
2023/12/09 12:16:39;;;;;;;73.27;27.90;;;;;;;;;;6201293;23;20167;-91
2023/12/09 12:19:45;;;;;;;64.10;25.50;;;;;;;;;;6200662;23;20203;-93
2023/12/09 12:22:50;;;;;;;67.33;26.80;;;;;;;;;;6198976;23;20276;-92
2023/12/09 12:26:02;;;;;;;69.17;26.70;;;;;;;;;;6202083;23;20172;-91
2023/12/09 12:29:09;;;;;;;68.97;26.73;;;;;;;;;;6202944;23;20168;-95
2023/12/09 12:32:16;;;;;;;72.67;27.03;;;;;;;;;;6203211;23;20200;-91
2023/12/09 12:35:24;;;;;;;76.97;28.03;;;;;;;;;;6201410;23;20171;-89
2023/12/09 12:38:30;;;;;;;74.70;28.10;;;;;;;;;;6203831;23;20156;-90
2023/12/09 12:41:35;;;;;;;75.03;28.10;;;;;;;;;;6202007;23;20655;-93
2023/12/09 12:44:42;;;;;;;82.50;28.83;;;;;;;;;;6202314;23;20168;-91
2023/12/09 12:47:50;;;;;;;68.87;26.03;;;;;;;;;;6201357;23;20680;-93
2023/12/09 12:50:55;;;;;;;69.60;27.00;;;;;;;;;;6200600;23;20267;-92
2023/12/09 12:54:02;;;;;;;72.87;25.97;;;;;;;;;;6202768;23;20175;-92
2023/12/09 12:57:07;;;;;;;79.13;29.10;;;;;;;;;;6203716;23;20180;-92
2023/12/09 13:00:14;;;;;;;73.03;27.37;;;;;;;;;;6202245;23;20624;-93
2023/12/09 13:03:20;;;;;;;70.17;27.30;;;;;;;;;;6200090;23;20220;-92
2023/12/09 13:06:25;;;;;;;63.83;24.70;;;;;;;;;;6202259;23;20175;-93
2023/12/09 13:09:31;;;;;;;73.47;27.00;;;;;;;;;;6203596;23;20548;-91
2023/12/09 13:12:36;;;;;;;70.70;26.00;;;;;;;;;;6198900;23;20191;-93
2023/12/09 13:15:42;;;;;;;72.73;26.87;;;;;;;;;;6200396;23;20227;-91
2023/12/09 13:18:51;;;;;;;74.60;26.07;;;;;;;;;;6183531;23;20168;-92
2023/12/09 13:21:57;;;;;;;70.53;25.40;;;;;;;;;;6201427;23;20171;-92
2023/12/09 13:25:04;;;;;;;67.57;26.43;;;;;;;;;;6199517;23;20159;-91
2023/12/09 13:28:10;;;;;;;72.00;27.10;;;;;;;;;;6198559;23;20152;-91
2023/12/09 13:31:16;;;;;;;72.27;27.03;;;;;;;;;;6200162;23;20218;-89
2023/12/09 13:34:23;;;;;;;67.80;26.73;;;;;;;;;;6200530;23;20171;-91
2023/12/09 13:37:29;;;;;;;72.37;26.63;;;;;;;;;;6198734;23;20193;-92
2023/12/09 13:40:43;;;;;;;68.60;25.97;;;;;;;;;;6198812;23;20168;-91
2023/12/09 13:43:50;;;;;;;72.73;26.93;;;;;;;;;;6201042;23;20199;-93
2023/12/09 13:46:56;;;;;;;65.77;25.37;;;;;;;;;;6200169;23;20191;-91
2023/12/09 13:50:12;;;;;;;66.17;25.50;;;;;;;;;;6203679;23;20168;-91
2023/12/09 13:53:21;;;;;;;67.57;24.67;;;;;;;;;;6199316;23;20176;-91
2023/12/09 13:56:26;;;;;;;63.83;24.10;;;;;;;;;;6196348;23;20176;-90
2023/12/09 13:59:32;;;;;;;66.67;23.40;;;;;;;;;;6200873;23;20171;-91
2023/12/09 14:02:38;;;;;;;71.20;25.23;;;;;;;;;;6196172;23;20300;-91
2023/12/09 14:05:45;;;;;;;58.47;22.70;;;;;;;;;;6199376;23;20191;-93
2023/12/09 14:08:51;;;;;;;65.33;23.00;;;;;;;;;;6196928;23;20179;-93
2023/12/09 14:11:56;;;;;;;58.30;22.17;;;;;;;;;;6196280;23;20195;-91
2023/12/09 14:15:02;;;;;;;72.23;23.83;;;;;;;;;;6195650;23;20495;-91
2023/12/09 14:18:07;;;;;;;71.67;26.03;;;;;;;;;;6197964;23;20271;-91
2023/12/09 14:21:14;;;;;;;70.77;26.43;;;;;;;;;;6197280;23;20171;-91
2023/12/09 14:24:19;;;;;;;70.50;27.17;;;;;;;;;;6197839;23;20163;-92
2023/12/09 14:27:23;;;;;;;82.90;30.73;;;;;;;;;;6197077;23;20164;-91
2023/12/09 14:30:30;;;;;;;70.23;25.07;;;;;;;;;;6197402;23;20171;-92
2023/12/09 14:33:38;;;;;;;75.07;26.97;;;;;;;;;;6199594;23;20151;-90
2023/12/09 14:37:00;;;;;;;72.93;26.73;;;;;;;;;;6197304;23;20168;-91
2023/12/09 14:40:09;;;;;;;78.43;27.37;;;;;;;;;;6199119;23;20172;-92
2023/12/09 14:43:16;;;;;;;74.00;27.50;;;;;;;;;;6199024;23;20211;-92
2023/12/09 14:49:49;;;;;;;70.07;23.90;;;;;;;;;;6197254;23;20241;-90
2023/12/09 14:52:54;;;;;;;68.00;25.20;;;;;;;;;;6201399;23;20195;-90
2023/12/09 14:56:01;;;;;;;70.27;24.43;;;;;;;;;;6198670;23;20299;-91
2023/12/09 14:59:06;;;;;;;66.70;25.30;;;;;;;;;;6195005;23;20172;-91
2023/12/09 15:02:13;;;;;;;65.00;24.50;;;;;;;;;;6196781;23;20180;-92
2023/12/09 15:05:18;;;;;;;68.20;24.80;;;;;;;;;;6198983;23;20164;-93
2023/12/09 15:08:23;;;;;;;71.90;25.57;;;;;;;;;;6195964;23;20254;-90
2023/12/09 15:11:30;;;;;;;71.40;25.33;;;;;;;;;;6196868;23;20651;-92
2023/12/09 15:14:36;;;;;;;67.13;24.87;;;;;;;;;;6195948;23;20280;-88
2023/12/09 15:17:41;;;;;;;68.97;24.20;;;;;;;;;;6198637;23;20171;-92
2023/12/09 15:27:27;;;;;;;64.10;23.90;;;;;;;;;;6197063;23;20184;-91
2023/12/09 15:30:33;;;;;;;74.47;26.03;;;;;;;;;;6196954;23;20168;-91
2023/12/09 15:33:42;;;;;;;76.37;26.90;;;;;;;;;;6197639;23;20247;-90
2023/12/09 15:36:48;;;;;;;104.40;37.07;;;;;;;;;;6195857;23;20782;-92
2023/12/09 15:39:53;;;;;;;79.00;25.27;;;;;;;;;;6195054;23;20179;-91
2023/12/09 15:43:02;;;;;;;76.80;26.50;;;;;;;;;;6197804;23;20191;-93
2023/12/09 15:46:07;;;;;;;79.20;28.53;;;;;;;;;;6197637;23;20172;-91
2023/12/09 15:49:13;;;;;;;94.22;33.47;;;;;;;;;;6197685;23;20399;-91
2023/12/09 15:52:18;;;;;;;81.47;27.83;;;;;;;;;;6199600;23;20719;-91
2023/12/09 15:55:23;;;;;;;67.83;23.47;;;;;;;;;;6197189;23;20253;-92
2023/12/09 15:58:30;;;;;;;75.33;26.20;;;;;;;;;;6197226;23;20220;-89
2023/12/09 16:01:35;;;;;;;83.63;25.00;;;;;;;;;;6194160;23;20598;-92
2023/12/09 16:04:41;;;;;;;90.13;27.43;;;;;;;;;;6194202;23;20147;-91
2023/12/09 16:07:46;;;;;;;76.30;25.03;;;;;;;;;;6197454;23;20151;-92
2023/12/09 16:10:51;;;;;;;80.30;27.67;;;;;;;;;;6197717;23;20172;-92
2023/12/09 16:13:58;;;;;;;76.57;26.03;;;;;;;;;;6197491;23;20172;-91
2023/12/09 16:17:03;;;;;;;80.77;26.90;;;;;;;;;;6197497;23;20168;-92
2023/12/09 16:20:10;;;;;;;88.93;26.60;;;;;;;;;;6200127;23;20271;-90
2023/12/09 16:23:15;;;;;;;65.93;23.23;;;;;;;;;;6198572;23;20176;-89
2023/12/09 16:26:32;;;;;;;54.07;21.63;;;;;;;;;;6200120;23;20156;-89
2023/12/09 16:29:56;;;;;;;52.77;20.67;;;;;;;;;;6203140;23;20175;-92
2023/12/09 16:33:08;;;;;;;56.50;22.77;;;;;;;;;;6199751;23;20655;-91
2023/12/09 16:36:14;;;;;;;68.43;26.33;;;;;;;;;;6199827;23;20172;-91
2023/12/09 16:39:20;;;;;;;63.90;26.03;;;;;;;;;;6199285;23;20227;-92
2023/12/09 16:42:26;;;;;;;59.80;25.90;;;;;;;;;;6196358;23;20736;-91
2023/12/09 16:45:31;;;;;;;59.53;24.07;;;;;;;;;;6197179;23;20168;-91
2023/12/09 16:48:37;;;;;;;67.90;27.30;;;;;;;;;;6197962;23;20168;-92
2023/12/09 16:51:42;;;;;;;58.97;24.27;;;;;;;;;;6196831;23;20228;-91
2023/12/09 16:54:48;;;;;;;53.30;22.97;;;;;;;;;;6196380;23;20163;-90
2023/12/09 16:57:54;;;;;;;57.17;23.07;;;;;;;;;;6198673;23;20183;-93
2023/12/09 17:00:59;;;;;;;47.27;21.13;;;;;;;;;;6199289;23;20283;-90
2023/12/09 17:04:06;;;;;;;52.20;21.33;;;;;;;;;;6197550;23;20211;-92
2023/12/09 17:07:12;;;;;;;63.67;23.00;;;;;;;;;;6198379;23;20167;-91
2023/12/09 17:10:18;;;;;;;63.93;25.70;;;;;;;;;;6201597;23;20226;-91
2023/12/09 17:13:23;;;;;;;57.13;22.93;;;;;;;;;;6196009;23;20200;-91
2023/12/09 17:16:29;;;;;;;48.73;20.57;;;;;;;;;;6203174;23;20171;-89
2023/12/09 17:19:36;;;;;;;51.97;19.77;;;;;;;;;;6199835;23;20171;-91
2023/12/09 17:22:42;;;;;;;50.50;20.83;;;;;;;;;;6197959;23;20242;-91
2023/12/09 17:25:47;;;;;;;50.80;21.57;;;;;;;;;;6196045;23;20291;-89
2023/12/09 17:28:52;;;;;;;46.07;18.70;;;;;;;;;;6195655;23;20231;-90
2023/12/09 17:31:57;;;;;;;42.90;18.27;;;;;;;;;;6194176;23;20177;-89
2023/12/09 17:35:04;;;;;;;54.00;20.80;;;;;;;;;;6194736;23;20172;-92
2023/12/09 17:38:09;;;;;;;63.13;24.20;;;;;;;;;;6193605;23;20160;-91
2023/12/09 17:41:14;;;;;;;63.43;23.83;;;;;;;;;;6193782;23;20172;-90
2023/12/09 17:44:20;;;;;;;56.83;23.93;;;;;;;;;;6195045;23;20168;-90
2023/12/09 17:47:25;;;;;;;66.43;24.50;;;;;;;;;;6195390;23;20168;-91
2023/12/09 17:50:32;;;;;;;61.03;23.67;;;;;;;;;;6194335;23;20164;-91
2023/12/09 17:53:37;;;;;;;73.87;25.43;;;;;;;;;;6195687;23;20194;-90
2023/12/09 17:56:42;;;;;;;65.37;24.67;;;;;;;;;;6194550;23;20187;-91
2023/12/09 17:59:48;;;;;;;76.63;28.33;;;;;;;;;;6195652;23;20176;-91
2023/12/09 18:02:53;;;;;;;76.03;26.53;;;;;;;;;;6196283;23;20184;-93
2023/12/09 18:06:01;;;;;;;90.43;31.90;;;;;;;;;;6199052;23;20192;-94
2023/12/09 18:09:06;;;;;;;91.80;30.67;;;;;;;;;;6197745;23;20215;-92
2023/12/09 18:12:11;;;;;;;79.57;28.47;;;;;;;;;;6196219;23;20160;-91
2023/12/09 18:15:17;;;;;;;97.40;34.13;;;;;;;;;;6199413;23;20163;-92
2023/12/09 18:18:22;;;;;;;86.67;31.67;;;;;;;;;;6198141;23;20171;-92
2023/12/09 18:21:29;;;;;;;95.57;32.93;;;;;;;;;;6198886;23;20216;-92
2023/12/09 18:24:34;;;;;;;79.37;26.40;;;;;;;;;;6196068;23;20496;-93
2023/12/09 18:27:40;;;;;;;69.53;23.07;;;;;;;;;;6198164;23;20223;-92
2023/12/09 18:30:47;;;;;;;72.87;26.43;;;;;;;;;;6198339;23;20176;-91
2023/12/09 18:33:53;;;;;;;77.30;28.50;;;;;;;;;;6200524;23;20262;-92
2023/12/09 18:37:00;;;;;;;81.53;28.37;;;;;;;;;;6199364;23;20216;-93
2023/12/09 18:40:06;;;;;;;82.90;30.97;;;;;;;;;;6196790;23;20247;-92
2023/12/09 18:43:12;;;;;;;91.77;31.67;;;;;;;;;;6197252;23;20237;-93
2023/12/09 18:46:18;;;;;;;63.90;25.23;;;;;;;;;;6197816;23;20180;-89
2023/12/09 18:49:23;;;;;;;64.70;24.50;;;;;;;;;;6197199;23;20234;-92
2023/12/09 18:52:30;;;;;;;84.63;31.97;;;;;;;;;;6197972;23;20651;-91
2023/12/09 18:55:39;;;;;;;93.03;33.80;;;;;;;;;;6200605;23;20720;-90
2023/12/09 18:58:44;;;;;;;66.07;24.63;;;;;;;;;;6198237;23;20213;-92
2023/12/09 19:01:50;;;;;;;55.33;22.67;;;;;;;;;;6198758;23;20167;-91
2023/12/09 19:04:55;;;;;;;77.30;28.80;;;;;;;;;;6198540;23;20635;-91
2023/12/09 19:08:01;;;;;;;68.97;26.70;;;;;;;;;;6200003;23;20215;-92
2023/12/09 19:11:08;;;;;;;74.10;23.77;;;;;;;;;;6198628;23;20500;-90
2023/12/09 19:14:13;;;;;;;126.60;24.90;;;;;;;;;;6197010;23;20651;-91
2023/12/09 19:17:18;;;;;;;96.37;22.03;;;;;;;;;;6194766;23;20287;-91
2023/12/09 19:20:23;;;;;;;85.97;25.73;;;;;;;;;;6195377;23;20171;-92
2023/12/09 19:23:30;;;;;;;79.20;21.53;;;;;;;;;;6197163;23;20184;-91
2023/12/09 21:39:31;;;;;;;49.90;20.30;;;;;;;;;;6151729;22;1339813;-91
2023/12/09 21:42:36;;;;;;;50.93;20.37;;;;;;;;;;6223970;23;20253;-88
2023/12/09 21:45:42;;;;;;;54.50;21.87;;;;;;;;;;6209388;23;20650;-91
2023/12/09 21:48:47;;;;;;;59.23;21.93;;;;;;;;;;6211569;23;20163;-91
2023/12/09 21:51:52;;;;;;;53.87;21.67;;;;;;;;;;6208919;23;20175;-90
2023/12/09 21:54:58;;;;;;;59.83;21.37;;;;;;;;;;6209126;23;20171;-92